createdAt,value
2023-04-20T00:01:57.121Z,86.14
2023-04-20T00:04:23.826Z,85.96
2023-04-20T00:06:51.783Z,85.91
2023-04-20T00:09:19.230Z,85.78
2023-04-20T00:11:46.002Z,85.67
2023-04-20T00:14:12.656Z,84.86
2023-04-20T00:16:39.454Z,84.65
2023-04-20T00:19:07.732Z,84.52
2023-04-20T00:21:35.650Z,85.61
2023-04-20T00:24:02.223Z,86.73
2023-04-20T00:26:28.900Z,85.26
2023-04-20T00:28:55.524Z,85.62
2023-04-20T00:31:22.262Z,85.60
2023-04-20T00:33:49.149Z,85.89
2023-04-20T00:36:15.937Z,86.31
2023-04-20T00:38:42.568Z,85.48
2023-04-20T00:41:09.130Z,85.65
2023-04-20T00:43:36.100Z,85.71
2023-04-20T00:46:03.882Z,85.98
2023-04-20T00:48:30.649Z,86.52
2023-04-20T00:50:57.400Z,87.42
2023-04-20T00:53:24.021Z,87.89
2023-04-20T00:55:51.003Z,88.73
2023-04-20T00:58:17.597Z,89.13
2023-04-20T01:00:44.409Z,88.89
2023-04-20T01:03:11.292Z,88.83
2023-04-20T01:05:38.065Z,89.79
2023-04-20T01:08:04.809Z,89.45
2023-04-20T01:10:31.418Z,89.36
2023-04-20T01:12:58.287Z,90.55
2023-04-20T01:15:24.945Z,91.12
2023-04-20T01:17:52.517Z,91.78
2023-04-20T01:20:20.621Z,91.28
2023-04-20T01:22:49.176Z,90.83
2023-04-20T01:25:16.682Z,90.30
2023-04-20T01:27:43.614Z,91.88
2023-04-20T01:30:11.204Z,91.62
2023-04-20T01:32:38.285Z,91.56
2023-04-20T01:35:05.980Z,90.74
2023-04-20T01:37:32.842Z,90.59
2023-04-20T01:39:59.613Z,91.21
2023-04-20T01:42:26.455Z,90.83
2023-04-20T01:44:53.060Z,91.10
2023-04-20T01:47:19.710Z,90.61
2023-04-20T01:49:46.310Z,90.69
2023-04-20T01:52:12.965Z,93.41
2023-04-20T01:54:39.585Z,92.82
2023-04-20T01:57:06.192Z,92.34
2023-04-20T01:59:32.772Z,92.43
2023-04-20T02:01:59.512Z,93.54
2023-04-20T02:04:26.162Z,92.56
2023-04-20T02:06:52.778Z,92.45
2023-04-20T02:09:19.665Z,92.95
2023-04-20T02:11:46.368Z,92.26
2023-04-20T02:14:13.020Z,93.78
2023-04-20T02:16:39.711Z,94.78
2023-04-20T02:19:06.934Z,94.77
2023-04-20T02:21:33.668Z,96.37
2023-04-20T02:24:01.395Z,96.08
2023-04-20T02:26:28.013Z,95.80
2023-04-20T02:28:54.676Z,95.83
2023-04-20T02:31:21.369Z,96.45
2023-04-20T02:33:49.993Z,96.50
2023-04-20T02:36:16.724Z,96.43
2023-04-20T02:38:43.356Z,96.96
2023-04-20T02:41:09.947Z,98.61
2023-04-20T02:43:36.652Z,98.45
2023-04-20T02:46:03.292Z,98.34
2023-04-20T02:48:29.964Z,98.51
2023-04-20T02:50:57.292Z,99.78
2023-04-20T02:53:24.072Z,99.05
2023-04-20T02:55:50.782Z,99.65
2023-04-20T02:58:17.730Z,99.88
2023-04-20T03:00:44.348Z,99.93
2023-04-20T03:03:11.294Z,99.53
2023-04-20T03:05:38.033Z,100.00
2023-04-20T03:08:07.022Z,100.00
2023-04-20T03:10:33.897Z,100.00
2023-04-20T03:13:00.615Z,100.00
2023-04-20T03:15:27.334Z,100.00
2023-04-20T03:17:54.060Z,100.00
2023-04-20T03:20:20.727Z,100.00
2023-04-20T03:22:47.388Z,100.00
2023-04-20T03:25:14.124Z,100.00
2023-04-20T03:27:40.931Z,100.00
2023-04-20T03:30:08.612Z,100.00
2023-04-20T03:32:35.584Z,100.00
2023-04-20T03:35:02.303Z,100.00
2023-04-20T03:37:28.925Z,100.00
2023-04-20T03:39:55.668Z,100.00
2023-04-20T03:42:22.350Z,100.00
2023-04-20T03:44:49.020Z,100.00
2023-04-20T03:47:15.782Z,100.00
2023-04-20T03:49:42.438Z,100.00
2023-04-20T03:52:09.207Z,100.00
2023-04-20T03:54:35.987Z,100.00
2023-04-20T03:57:02.651Z,100.00
2023-04-20T03:59:29.405Z,100.00
2023-04-20T04:01:56.718Z,100.00
2023-04-20T04:04:23.702Z,100.00
2023-04-20T04:06:50.708Z,100.00
2023-04-20T04:09:17.561Z,100.00
2023-04-20T04:11:44.346Z,100.00
2023-04-20T04:14:11.022Z,100.00
2023-04-20T04:16:37.769Z,100.00
2023-04-20T04:19:04.465Z,100.00
2023-04-20T04:21:31.038Z,100.00
2023-04-20T04:23:57.772Z,100.00
2023-04-20T04:26:24.846Z,100.00
2023-04-20T04:28:51.878Z,100.00
2023-04-20T04:31:19.677Z,100.00
2023-04-20T04:33:46.586Z,100.00
2023-04-20T04:36:15.353Z,100.00
2023-04-20T04:38:45.234Z,100.00
2023-04-20T04:41:15.834Z,100.00
2023-04-20T04:43:43.211Z,100.00
2023-04-20T04:46:11.080Z,100.00
2023-04-20T04:48:38.323Z,100.00
2023-04-20T04:51:05.055Z,100.00
2023-04-20T04:53:31.672Z,100.00
2023-04-20T04:55:58.297Z,100.00
2023-04-20T04:58:25.136Z,100.00
2023-04-20T05:00:51.816Z,100.00
2023-04-20T05:03:18.687Z,100.00
2023-04-20T05:05:45.716Z,100.00
2023-04-20T05:08:12.451Z,100.00
2023-04-20T05:10:39.109Z,100.00
2023-04-20T05:13:05.840Z,100.00
2023-04-20T05:15:32.678Z,100.00
2023-04-20T05:17:59.357Z,100.00
2023-04-20T05:20:26.197Z,100.00
2023-04-20T05:22:52.886Z,100.00
2023-04-20T05:25:19.529Z,100.00
2023-04-20T05:27:46.327Z,100.00
2023-04-20T05:30:21.471Z,100.00
2023-04-20T05:32:51.570Z,100.00
2023-04-20T05:35:19.272Z,100.00
2023-04-20T05:37:47.706Z,100.00
2023-04-20T05:40:15.837Z,100.00
2023-04-20T05:42:42.511Z,100.00
2023-04-20T05:45:09.896Z,100.00
2023-04-20T05:47:36.585Z,100.00
2023-04-20T05:50:03.768Z,100.00
2023-04-20T05:52:30.358Z,100.00
2023-04-20T05:54:59.557Z,100.00
2023-04-20T05:57:26.274Z,100.00
2023-04-20T05:59:53.136Z,100.00
2023-04-20T06:02:19.813Z,100.00
2023-04-20T06:04:46.798Z,100.00
2023-04-20T06:07:13.478Z,100.00
2023-04-20T06:09:40.210Z,100.00
2023-04-20T06:12:07.062Z,100.00
2023-04-20T06:14:33.730Z,100.00
2023-04-20T06:17:00.364Z,100.00
2023-04-20T06:19:27.080Z,100.00
2023-04-20T06:21:53.758Z,100.00
2023-04-20T06:24:20.351Z,100.00
2023-04-20T06:26:46.944Z,100.00
2023-04-20T06:29:13.552Z,100.00
2023-04-20T06:31:40.346Z,100.00
2023-04-20T06:34:07.049Z,100.00
2023-04-20T06:36:33.729Z,100.00
2023-04-20T06:39:00.462Z,100.00
2023-04-20T06:41:27.115Z,100.00
2023-04-20T06:43:56.046Z,100.00
2023-04-20T06:46:22.806Z,100.00
2023-04-20T06:48:49.455Z,100.00
2023-04-20T06:51:16.404Z,100.00
2023-04-20T06:53:43.047Z,100.00
2023-04-20T06:56:09.866Z,100.00
2023-04-20T06:58:36.516Z,100.00
2023-04-20T07:01:03.226Z,100.00
2023-04-20T07:03:30.421Z,100.00
2023-04-20T07:05:57.286Z,100.00
2023-04-20T07:08:23.957Z,100.00
2023-04-20T07:10:50.754Z,100.00
2023-04-20T07:13:17.364Z,100.00
2023-04-20T07:15:45.945Z,100.00
2023-04-20T07:18:12.707Z,100.00
2023-04-20T07:20:39.588Z,100.00
2023-04-20T07:23:06.567Z,100.00
2023-04-20T07:25:33.314Z,100.00
2023-04-20T07:28:00.207Z,100.00
2023-04-20T07:30:27.296Z,100.00
2023-04-20T07:32:54.329Z,100.00
2023-04-20T07:35:21.488Z,100.00
2023-04-20T07:37:48.473Z,100.00
2023-04-20T07:40:17.112Z,99.86
2023-04-20T07:42:44.154Z,98.85
2023-04-20T07:45:11.744Z,98.96
2023-04-20T07:47:39.122Z,98.10
2023-04-20T07:50:07.417Z,97.40
2023-04-20T07:52:34.826Z,97.85
2023-04-20T07:55:01.779Z,98.81
2023-04-20T07:57:29.428Z,98.98
2023-04-20T07:59:56.396Z,99.02
2023-04-20T08:02:23.197Z,99.27
2023-04-20T08:04:50.326Z,99.38
2023-04-20T08:07:17.812Z,99.18
2023-04-20T08:09:44.633Z,98.80
2023-04-20T08:12:11.412Z,98.21
2023-04-20T08:14:38.373Z,97.08
2023-04-20T08:17:05.128Z,96.75
2023-04-20T08:19:31.810Z,95.18
2023-04-20T08:21:59.355Z,92.97
2023-04-20T08:24:27.076Z,93.78
2023-04-20T08:26:53.706Z,93.85
2023-04-20T08:29:20.379Z,92.91
2023-04-20T08:31:48.522Z,91.91
2023-04-20T08:34:16.152Z,92.70
2023-04-20T08:36:44.055Z,91.83
2023-04-20T08:39:14.850Z,90.14
2023-04-20T08:41:41.538Z,90.11
2023-04-20T08:44:08.477Z,88.81
2023-04-20T08:46:35.530Z,87.15
2023-04-20T08:49:05.175Z,88.15
2023-04-20T08:51:32.675Z,86.31
2023-04-20T08:54:06.318Z,86.96
2023-04-20T08:56:40.498Z,87.00
2023-04-20T08:59:10.303Z,85.99
2023-04-20T09:01:41.622Z,84.71
2023-04-20T09:04:20.545Z,86.50
2023-04-20T09:06:52.630Z,87.24
2023-04-20T09:09:24.365Z,87.73
2023-04-20T09:12:04.407Z,85.92
2023-04-20T09:14:41.948Z,85.57
2023-04-20T09:17:08.568Z,85.31
2023-04-20T09:19:35.309Z,86.72
2023-04-20T09:22:06.627Z,86.29
2023-04-20T09:24:35.257Z,87.00
2023-04-20T09:27:03.654Z,87.14
2023-04-20T09:29:30.416Z,86.83
2023-04-20T09:31:57.152Z,88.05
2023-04-20T09:34:24.739Z,87.48
2023-04-20T09:36:54.757Z,88.15
2023-04-20T09:39:24.835Z,87.58
2023-04-20T09:41:52.539Z,87.38
2023-04-20T09:44:20.157Z,88.01
2023-04-20T09:46:47.149Z,87.09
2023-04-20T09:49:14.973Z,86.10
2023-04-20T09:51:46.682Z,84.79
2023-04-20T09:54:15.954Z,85.35
2023-04-20T09:56:43.227Z,83.67
2023-04-20T09:59:09.822Z,84.67
2023-04-20T10:01:38.186Z,83.97
2023-04-20T10:04:09.810Z,82.88
2023-04-20T10:06:37.787Z,82.93
2023-04-20T10:09:06.639Z,82.40
2023-04-20T10:11:52.624Z,82.07
2023-04-20T10:14:23.403Z,81.17
2023-04-20T10:17:04.515Z,78.66
2023-04-20T10:19:41.734Z,79.94
2023-04-20T10:22:10.477Z,78.79
2023-04-20T10:24:40.462Z,77.58
2023-04-20T10:27:20.360Z,78.24
2023-04-20T10:29:47.434Z,78.77
2023-04-20T10:32:25.013Z,79.61
2023-04-20T10:35:08.758Z,78.45
2023-04-20T10:37:36.103Z,78.22
2023-04-20T10:40:07.328Z,79.16
2023-04-20T10:42:45.267Z,78.67
2023-04-20T10:45:13.221Z,78.24
2023-04-20T10:47:42.715Z,77.19
2023-04-20T10:50:10.176Z,78.10
2023-04-20T10:52:38.143Z,72.97
2023-04-20T10:55:07.123Z,74.69
2023-04-20T10:57:33.991Z,74.66
2023-04-20T11:00:00.708Z,74.02
2023-04-20T11:02:28.610Z,75.44
2023-04-20T11:05:00.947Z,74.48
2023-04-20T11:07:27.800Z,74.31
2023-04-20T11:09:57.985Z,74.27
2023-04-20T11:12:24.618Z,73.16
2023-04-20T11:14:57.980Z,73.14
2023-04-20T11:17:38.050Z,73.55
2023-04-20T11:20:15.401Z,72.79
2023-04-20T11:22:43.766Z,71.75
2023-04-20T11:25:11.995Z,72.00
2023-04-20T11:27:39.648Z,71.96
2023-04-20T11:30:08.015Z,71.87
2023-04-20T11:32:36.637Z,70.71
2023-04-20T11:35:07.900Z,68.90
2023-04-20T11:37:51.133Z,67.40
2023-04-20T11:40:18.209Z,68.03
2023-04-20T11:42:44.860Z,68.14
2023-04-20T11:45:11.726Z,68.93
2023-04-20T11:47:41.163Z,70.21
2023-04-20T11:50:09.348Z,69.68
2023-04-20T11:52:36.232Z,70.23
2023-04-20T11:55:02.935Z,71.46
2023-04-20T11:57:29.607Z,72.33
2023-04-20T11:59:56.351Z,72.05
2023-04-20T12:02:23.111Z,72.81
2023-04-20T12:04:50.069Z,73.27
2023-04-20T12:07:16.880Z,72.25
2023-04-20T12:09:44.512Z,73.07
2023-04-20T12:12:11.286Z,73.69
2023-04-20T12:14:37.911Z,73.54
2023-04-20T12:17:05.055Z,73.50
2023-04-20T12:19:31.879Z,73.44
2023-04-20T12:21:58.543Z,73.33
2023-04-20T12:24:25.418Z,72.98
2023-04-20T12:26:52.183Z,73.51
2023-04-20T12:29:19.094Z,74.20
2023-04-20T12:31:46.374Z,74.29
2023-04-20T12:34:13.068Z,74.40
2023-04-20T12:36:39.692Z,73.34
2023-04-20T12:39:06.528Z,73.33
2023-04-20T12:41:33.427Z,73.89
2023-04-20T12:44:01.156Z,73.80
2023-04-20T12:46:29.143Z,73.80
2023-04-20T12:48:56.321Z,73.95
2023-04-20T12:51:22.928Z,73.92
2023-04-20T12:53:49.538Z,74.65
2023-04-20T12:56:16.565Z,74.32
2023-04-20T12:58:43.780Z,73.07
2023-04-20T13:01:10.479Z,74.05
2023-04-20T13:03:37.561Z,74.21
2023-04-20T13:06:05.918Z,74.97
2023-04-20T13:08:32.570Z,74.04
2023-04-20T13:10:59.332Z,74.39
2023-04-20T13:13:26.264Z,74.96
2023-04-20T13:15:56.223Z,74.95
2023-04-20T13:18:24.478Z,75.84
2023-04-20T13:20:51.296Z,74.36
2023-04-20T13:23:18.173Z,73.88
2023-04-20T13:25:44.963Z,73.51
2023-04-20T13:28:14.482Z,73.41
2023-04-20T13:30:41.580Z,74.22
2023-04-20T13:33:08.296Z,73.89
2023-04-20T13:35:35.088Z,73.90
2023-04-20T13:38:02.224Z,74.56
2023-04-20T13:40:28.890Z,73.67
2023-04-20T13:42:55.736Z,74.58
2023-04-20T13:45:22.376Z,75.14
2023-04-20T13:47:49.075Z,74.04
2023-04-20T13:50:15.750Z,73.07
2023-04-20T13:52:42.314Z,73.18
2023-04-20T13:55:09.347Z,73.19
2023-04-20T13:57:36.049Z,71.96
2023-04-20T14:00:02.984Z,70.90
2023-04-20T14:02:29.980Z,71.60
2023-04-20T14:04:56.877Z,72.14
2023-04-20T14:07:23.660Z,72.93
2023-04-20T14:09:51.047Z,73.21
2023-04-20T14:12:17.676Z,71.88
2023-04-20T14:14:44.441Z,72.67
2023-04-20T14:17:11.697Z,72.62
2023-04-20T14:19:38.429Z,73.09
2023-04-20T14:22:05.148Z,73.43
2023-04-20T14:24:31.869Z,73.59
2023-04-20T14:26:59.524Z,73.69
2023-04-20T14:29:26.180Z,73.85
2023-04-20T14:31:52.989Z,74.13
2023-04-20T14:34:20.102Z,74.99
2023-04-20T14:36:46.966Z,75.10
2023-04-20T14:39:13.584Z,75.30
2023-04-20T14:41:40.305Z,75.53
2023-04-20T14:44:06.955Z,75.19
2023-04-20T14:46:33.721Z,75.30
2023-04-20T14:49:00.371Z,75.80
2023-04-20T14:51:27.153Z,76.29
2023-04-20T14:53:53.851Z,76.18
2023-04-20T14:56:20.824Z,76.36
2023-04-20T14:58:48.049Z,76.19
2023-04-20T15:01:15.287Z,75.80
2023-04-20T15:03:42.272Z,76.06
2023-04-20T15:06:09.160Z,75.85
2023-04-20T15:08:36.032Z,75.37
2023-04-20T15:11:05.205Z,74.77
2023-04-20T15:13:31.895Z,74.92
2023-04-20T15:15:58.680Z,74.43
2023-04-20T15:18:25.326Z,74.56
2023-04-20T15:20:55.186Z,74.92
2023-04-20T15:23:22.237Z,74.54
2023-04-20T15:25:48.881Z,73.89
2023-04-20T15:28:15.772Z,74.22
2023-04-20T15:30:42.620Z,74.59
2023-04-20T15:33:09.403Z,75.13
2023-04-20T15:35:36.225Z,75.84
2023-04-20T15:38:03.672Z,75.86
2023-04-20T15:40:30.449Z,76.04
2023-04-20T15:42:57.254Z,76.61
2023-04-20T15:45:23.980Z,76.85
2023-04-20T15:47:51.631Z,77.60
2023-04-20T15:50:18.592Z,77.58
2023-04-20T15:52:45.905Z,78.00
2023-04-20T15:55:12.777Z,78.39
2023-04-20T15:57:39.430Z,79.40
2023-04-20T16:00:07.903Z,79.46
2023-04-20T16:02:34.857Z,79.62
2023-04-20T16:05:02.428Z,79.82
2023-04-20T16:07:29.312Z,80.32
2023-04-20T16:09:55.938Z,81.00
2023-04-20T16:12:22.575Z,81.80
2023-04-20T16:14:49.603Z,82.61
2023-04-20T16:17:17.057Z,83.62
2023-04-20T16:19:43.768Z,84.07
2023-04-20T16:22:10.712Z,84.41
2023-04-20T16:24:37.350Z,84.70
2023-04-20T16:27:04.036Z,85.15
2023-04-20T16:29:30.791Z,85.74
2023-04-20T16:31:57.866Z,85.86
2023-04-20T16:34:24.615Z,86.06
2023-04-20T16:36:51.235Z,86.63
2023-04-20T16:39:18.684Z,86.74
2023-04-20T16:41:45.638Z,87.38
2023-04-20T16:44:16.677Z,87.05
2023-04-20T16:46:44.268Z,87.55
2023-04-20T16:49:10.936Z,88.13
2023-04-20T16:51:37.569Z,88.76
2023-04-20T16:54:04.459Z,88.76
2023-04-20T16:56:31.261Z,89.22
2023-04-20T16:58:58.285Z,89.41
2023-04-20T17:01:25.138Z,90.01
2023-04-20T17:03:52.097Z,90.07
2023-04-20T17:06:18.847Z,90.24
2023-04-20T17:08:45.608Z,90.97
2023-04-20T17:11:13.790Z,90.90
2023-04-20T17:13:40.376Z,91.41
2023-04-20T17:16:07.054Z,91.30
2023-04-20T17:18:35.216Z,91.12
2023-04-20T17:21:02.347Z,91.33
2023-04-20T17:23:29.741Z,91.46
2023-04-20T17:25:58.285Z,91.82
2023-04-20T17:28:24.933Z,91.97
2023-04-20T17:30:51.743Z,91.78
2023-04-20T17:33:18.362Z,92.64
2023-04-20T17:35:46.541Z,92.73
2023-04-20T17:38:13.333Z,93.33
2023-04-20T17:40:39.983Z,93.00
2023-04-20T17:43:06.640Z,93.35
2023-04-20T17:45:33.352Z,93.64
2023-04-20T17:47:59.986Z,93.50
2023-04-20T17:50:26.656Z,93.55
2023-04-20T17:52:53.369Z,94.09
2023-04-20T17:55:20.819Z,94.24
2023-04-20T17:57:47.559Z,94.17
2023-04-20T18:00:14.938Z,94.60
2023-04-20T18:02:41.819Z,94.89
2023-04-20T18:05:08.832Z,94.89
2023-04-20T18:07:35.537Z,95.08
2023-04-20T18:10:02.614Z,95.20
2023-04-20T18:12:29.246Z,95.08
2023-04-20T18:14:55.972Z,95.35
2023-04-20T18:17:22.897Z,95.70
2023-04-20T18:19:49.518Z,95.59
2023-04-20T18:22:16.674Z,95.78
2023-04-20T18:24:43.778Z,95.25
2023-04-20T18:27:10.567Z,95.95
2023-04-20T18:29:37.256Z,95.63
2023-04-20T18:32:04.251Z,95.79
2023-04-20T18:34:32.272Z,95.45
2023-04-20T18:36:59.117Z,95.70
2023-04-20T18:39:26.393Z,95.93
2023-04-20T18:41:53.195Z,96.17
2023-04-20T18:44:20.176Z,96.36
2023-04-20T18:46:47.279Z,96.23
2023-04-20T18:49:14.441Z,96.14
2023-04-20T18:51:41.134Z,97.01
2023-04-20T18:54:07.942Z,96.93
2023-04-20T18:56:34.628Z,97.44
2023-04-20T18:59:01.625Z,97.25
2023-04-20T19:01:28.640Z,97.75
2023-04-20T19:03:55.733Z,97.78
2023-04-20T19:06:22.802Z,97.44
2023-04-20T19:08:52.532Z,97.83
2023-04-20T19:11:19.139Z,97.84
2023-04-20T19:13:46.001Z,98.09
2023-04-20T19:16:12.837Z,98.40
2023-04-20T19:18:39.833Z,97.98
2023-04-20T19:21:06.645Z,98.30
2023-04-20T19:23:35.756Z,97.78
2023-04-20T19:26:02.862Z,99.03
2023-04-20T19:28:30.216Z,97.74
2023-04-20T19:30:57.792Z,98.99
2023-04-20T19:33:24.554Z,98.28
2023-04-20T19:35:51.286Z,98.02
2023-04-20T19:38:19.469Z,98.42
2023-04-20T19:40:47.691Z,97.80
2023-04-20T19:43:14.526Z,98.35
2023-04-20T19:45:41.196Z,97.55
2023-04-20T19:48:08.165Z,97.90
2023-04-20T19:50:34.932Z,98.50
2023-04-20T19:53:01.774Z,98.43
2023-04-20T19:55:28.448Z,98.91
2023-04-20T19:57:55.112Z,98.93
2023-04-20T20:00:21.935Z,98.71
2023-04-20T20:02:48.838Z,98.81
2023-04-20T20:05:15.793Z,98.39
2023-04-20T20:07:42.553Z,98.27
2023-04-20T20:10:09.342Z,98.44
2023-04-20T20:12:35.984Z,98.06
2023-04-20T20:15:04.069Z,99.34
2023-04-20T20:17:30.834Z,98.54
2023-04-20T20:19:58.172Z,99.55
2023-04-20T20:22:24.915Z,99.30
2023-04-20T20:24:54.179Z,99.43
2023-04-20T20:27:21.346Z,99.88
2023-04-20T20:29:48.090Z,100.00
2023-04-20T20:32:14.809Z,99.55
2023-04-20T20:34:41.468Z,99.86
2023-04-20T20:37:34.907Z,99.51
2023-04-20T20:40:05.811Z,99.66
2023-04-20T20:42:33.739Z,99.65
2023-04-20T20:45:01.043Z,99.96
2023-04-20T20:47:27.728Z,99.71
2023-04-20T20:49:54.404Z,99.84
2023-04-20T20:52:21.179Z,99.99
2023-04-20T20:54:47.938Z,99.36
2023-04-20T20:57:14.564Z,99.49
2023-04-20T20:59:41.230Z,99.98
2023-04-20T21:02:07.900Z,99.64
2023-04-20T21:04:35.106Z,100.00
2023-04-20T21:07:01.676Z,99.78
2023-04-20T21:09:28.473Z,100.00
2023-04-20T21:11:57.650Z,100.00
2023-04-20T21:14:24.349Z,100.00
2023-04-20T21:16:51.096Z,100.00
2023-04-20T21:19:18.174Z,100.00
2023-04-20T21:21:45.028Z,100.00
2023-04-20T21:24:11.774Z,100.00
2023-04-20T21:26:38.454Z,100.00
2023-04-20T21:29:05.819Z,100.00
2023-04-20T21:31:33.056Z,100.00
2023-04-20T21:33:59.976Z,100.00
2023-04-20T21:36:27.952Z,100.00
2023-04-20T21:38:55.149Z,100.00
2023-04-20T21:41:21.895Z,100.00
2023-04-20T21:43:48.619Z,100.00
2023-04-20T21:46:15.878Z,100.00
2023-04-20T21:48:42.731Z,100.00
2023-04-20T21:51:14.217Z,100.00
2023-04-20T21:53:41.089Z,100.00
2023-04-20T21:56:07.722Z,100.00
2023-04-20T21:58:34.600Z,100.00
2023-04-20T22:01:01.391Z,100.00
2023-04-20T22:03:31.482Z,100.00
2023-04-20T22:05:59.029Z,100.00
2023-04-20T22:08:25.836Z,100.00
2023-04-20T22:10:52.575Z,100.00
2023-04-20T22:13:20.031Z,100.00
2023-04-20T22:15:47.583Z,100.00
2023-04-20T22:18:14.426Z,100.00
2023-04-20T22:20:41.080Z,100.00
2023-04-20T22:23:07.695Z,100.00
2023-04-20T22:25:34.398Z,100.00
2023-04-20T22:28:01.060Z,100.00
2023-04-20T22:30:27.872Z,100.00
2023-04-20T22:32:54.546Z,100.00
2023-04-20T22:35:21.236Z,100.00
2023-04-20T22:37:47.899Z,100.00
2023-04-20T22:40:14.721Z,100.00
2023-04-20T22:42:41.431Z,100.00
2023-04-20T22:45:10.948Z,100.00
2023-04-20T22:47:38.181Z,100.00
2023-04-20T22:50:06.189Z,100.00
2023-04-20T22:52:32.795Z,100.00
2023-04-20T22:55:00.379Z,100.00
2023-04-20T22:57:26.974Z,100.00
2023-04-20T22:59:53.648Z,100.00
2023-04-20T23:02:20.286Z,100.00
2023-04-20T23:04:47.382Z,100.00
2023-04-20T23:07:13.985Z,100.00
2023-04-20T23:09:41.454Z,100.00
2023-04-20T23:12:11.696Z,100.00
2023-04-20T23:14:42.416Z,100.00
2023-04-20T23:17:10.367Z,100.00
2023-04-20T23:19:38.561Z,100.00
2023-04-20T23:22:08.820Z,100.00
2023-04-20T23:24:35.790Z,100.00
2023-04-20T23:27:02.733Z,100.00
2023-04-20T23:29:29.454Z,100.00
2023-04-20T23:31:56.202Z,100.00
2023-04-20T23:34:22.870Z,100.00
2023-04-20T23:36:50.606Z,100.00
2023-04-20T23:39:17.773Z,100.00
2023-04-20T23:41:44.993Z,100.00
2023-04-20T23:44:11.770Z,100.00
2023-04-20T23:46:38.943Z,100.00
2023-04-20T23:49:05.672Z,100.00
2023-04-20T23:51:32.427Z,100.00
2023-04-20T23:53:59.040Z,100.00
2023-04-20T23:56:25.994Z,100.00
2023-04-20T23:58:52.540Z,100.00
